Time;durP1;ratioP1;P1;durP2;ratioP2;P2;SDS_P1;SDS_P2;PMS_P1;PMS_P2;Temp;Humidity;BMP_temperature;BMP_pressure;BME280_temperature;BME280_humidity;BME280_pressure;Samples;Min_cycle;Max_cycle;Signal;HPM_P1;HPM_P2
2022/09/01 00:02:06;;;;;;;2.63;1.23;;;14.50;99.90;;;;;;5033734;28;20389;-77
2022/09/01 00:04:34;;;;;;;2.97;1.27;;;14.50;99.90;;;;;;5034716;28;20049;-76
2022/09/01 00:07:00;;;;;;;3.65;1.50;;;14.50;99.90;;;;;;5033844;28;20052;-77
2022/09/01 00:09:26;;;;;;;3.73;1.27;;;14.40;99.90;;;;;;5034667;28;20042;-77
2022/09/01 00:11:53;;;;;;;3.00;1.20;;;14.40;99.90;;;;;;5034597;28;20081;-77
2022/09/01 00:14:22;;;;;;;2.88;1.30;;;14.40;99.90;;;;;;5034643;28;20089;-77
2022/09/01 00:16:47;;;;;;;2.50;1.20;;;14.40;99.90;;;;;;5032948;28;20404;-77
2022/09/01 00:19:13;;;;;;;4.30;1.33;;;14.50;99.90;;;;;;5033351;28;20046;-77
2022/09/01 00:21:42;;;;;;;2.43;1.30;;;14.40;99.90;;;;;;5034466;28;20041;-77
2022/09/01 00:24:08;;;;;;;5.38;1.50;;;14.30;99.90;;;;;;5034369;28;20056;-77
2022/09/01 00:26:34;;;;;;;2.80;1.40;;;14.30;99.90;;;;;;5034501;28;20051;-77
2022/09/01 00:29:00;;;;;;;3.35;1.60;;;14.30;99.90;;;;;;5034333;28;20124;-77
2022/09/01 00:31:26;;;;;;;4.10;1.57;;;14.20;99.90;;;;;;5034191;28;20104;-77
2022/09/01 00:33:52;;;;;;;2.45;1.45;;;14.20;99.90;;;;;;5034206;28;20049;-77
2022/09/01 00:36:19;;;;;;;3.13;1.60;;;14.40;99.90;;;;;;5034704;28;20041;-77
2022/09/01 00:38:46;;;;;;;7.72;1.92;;;14.10;99.90;;;;;;5034216;28;20045;-77
2022/09/01 00:41:12;;;;;;;3.00;1.50;;;14.10;99.90;;;;;;5034132;28;20101;-76
2022/09/01 00:43:43;;;;;;;;;;;14.10;99.90;;;;;;5034480;28;20045;-76
2022/09/01 00:46:31;;;;;;;3.90;1.50;;;14.10;99.90;;;;;;5034012;28;20015;-77
2022/09/01 00:49:17;;;;;;;2.45;1.50;;;14.00;99.90;;;;;;5034062;28;20045;-77
2022/09/01 00:51:50;;;;;;;4.63;1.42;;;14.00;99.90;;;;;;5020239;28;20485;-77
2022/09/01 00:54:21;;;;;;;4.20;1.60;;;14.00;99.90;;;;;;5033836;28;20048;-77
2022/09/01 00:56:47;;;;;;;3.15;1.40;;;14.00;99.90;;;;;;5034101;28;20041;-77
2022/09/01 00:59:15;;;;;;;3.00;1.43;;;13.90;99.90;;;;;;5034276;28;20056;-77
2022/09/01 01:01:40;;;;;;;3.05;1.50;;;13.90;99.90;;;;;;5033697;28;20125;-77
2022/09/01 01:04:13;;;;;;;2.30;1.40;;;14.00;99.90;;;;;;5032689;28;20050;-77
2022/09/01 01:06:42;;;;;;;3.53;1.65;;;13.90;99.90;;;;;;5033883;28;20072;-77
2022/09/01 01:09:08;;;;;;;4.55;1.88;;;13.80;99.90;;;;;;5032450;28;20038;-77
2022/09/01 01:11:34;;;;;;;4.23;1.67;;;13.80;99.90;;;;;;5033715;28;20060;-76
2022/09/01 01:14:14;;;;;;;4.23;1.30;;;13.80;99.90;;;;;;5032630;28;20300;-76
2022/09/01 01:16:43;;;;;;;2.78;1.55;;;13.80;99.90;;;;;;5033722;28;20288;-77
2022/09/01 01:25:22;;;;;;;4.07;1.67;;;13.70;99.90;;;;;;5006354;28;20386;-76
2022/09/01 01:27:49;;;;;;;2.97;1.57;;;13.70;99.90;;;;;;5033936;28;20097;-77
2022/09/01 01:30:16;;;;;;;3.30;1.35;;;13.60;99.90;;;;;;5037320;28;20671;-76
2022/09/01 01:32:46;;;;;;;2.47;1.30;;;13.60;99.90;;;;;;5037503;28;20037;-77
2022/09/01 01:35:14;;;;;;;3.05;1.48;;;13.50;99.90;;;;;;5037518;28;20053;-76
2022/09/01 01:37:47;;;;;;;4.47;1.60;;;13.60;99.90;;;;;;5037532;28;20041;-76
2022/09/01 01:40:15;;;;;;;3.35;1.77;;;13.50;99.90;;;;;;5037406;28;20060;-76
2022/09/01 01:42:46;;;;;;;2.47;1.73;;;13.50;99.90;;;;;;5037362;28;20050;-77
2022/09/01 01:45:16;;;;;;;2.58;1.67;;;13.50;99.90;;;;;;5037102;28;20504;-76
2022/09/01 01:47:46;;;;;;;3.45;1.60;;;13.70;99.90;;;;;;5037373;28;20041;-77
2022/09/01 01:50:13;;;;;;;2.35;1.40;;;13.50;99.90;;;;;;5037316;28;20072;-77
2022/09/01 01:52:40;;;;;;;4.05;1.85;;;13.50;99.90;;;;;;5036244;28;20385;-76
2022/09/01 01:55:11;;;;;;;2.47;1.58;;;13.40;99.90;;;;;;5035595;28;20053;-76
2022/09/01 01:57:48;;;;;;;2.95;1.60;;;13.40;99.90;;;;;;5036921;28;20493;-77
2022/09/01 02:00:18;;;;;;;2.10;1.55;;;13.30;99.90;;;;;;5037306;28;20440;-78
2022/09/01 02:02:51;;;;;;;3.78;1.80;;;13.30;99.90;;;;;;5036913;28;20140;-77
2022/09/01 02:05:20;;;;;;;3.65;1.60;;;13.30;99.90;;;;;;5037177;28;20049;-77
2022/09/01 02:07:47;;;;;;;2.35;1.65;;;13.30;99.90;;;;;;5036837;28;20061;-76
2022/09/01 02:10:13;;;;;;;3.65;1.67;;;13.20;99.90;;;;;;5036933;28;20041;-76
2022/09/01 02:12:40;;;;;;;2.72;1.70;;;13.20;99.90;;;;;;5036909;28;20115;-76
2022/09/01 02:15:06;;;;;;;;;;;13.40;99.90;;;;;;5036887;28;20056;-76
2022/09/01 02:17:32;;;;;;;2.55;1.85;;;13.20;99.90;;;;;;5036796;28;19926;-77
2022/09/01 02:19:58;;;;;;;3.00;1.77;;;13.20;99.90;;;;;;5036675;28;20049;-76
2022/09/01 02:22:23;;;;;;;2.65;1.85;;;13.10;99.90;;;;;;5036657;28;20076;-76
2022/09/01 02:24:52;;;;;;;3.17;1.85;;;13.10;99.90;;;;;;5036619;28;20045;-77
2022/09/01 02:27:23;;;;;;;4.50;1.98;;;13.00;99.90;;;;;;5037005;28;20098;-76
2022/09/01 02:29:53;;;;;;;2.72;2.10;;;13.10;99.90;;;;;;5036552;28;20111;-77
2022/09/01 02:32:20;;;;;;;2.65;1.77;;;13.10;99.90;;;;;;5036562;28;20045;-76
2022/09/01 02:34:52;;;;;;;3.35;2.00;;;13.10;99.90;;;;;;5036354;28;20105;-76
2022/09/01 02:37:24;;;;;;;3.25;1.98;;;13.10;99.90;;;;;;5037075;28;20045;-76
2022/09/01 02:39:58;;;;;;;3.30;1.80;;;13.00;99.90;;;;;;5035437;28;20057;-76
2022/09/01 02:42:28;;;;;;;4.05;1.70;;;13.00;99.90;;;;;;5036422;28;20080;-77
2022/09/01 02:44:54;;;;;;;3.38;2.00;;;13.00;99.90;;;;;;5036438;28;20396;-76
2022/09/01 02:47:22;;;;;;;2.97;1.88;;;13.00;99.90;;;;;;5036142;28;20123;-76
2022/09/01 02:49:49;;;;;;;3.90;1.65;;;13.00;99.90;;;;;;5035973;28;20493;-76
2022/09/01 02:52:16;;;;;;;3.95;1.70;;;13.00;99.90;;;;;;5036132;28;20156;-76
2022/09/01 02:54:44;;;;;;;3.72;1.95;;;13.00;99.90;;;;;;5036108;28;20060;-76
2022/09/01 02:57:10;;;;;;;4.28;1.60;;;13.00;99.90;;;;;;5035159;28;20053;-76
2022/09/01 02:59:36;;;;;;;3.17;1.63;;;13.00;99.90;;;;;;5036015;28;20049;-76
2022/09/01 03:02:03;;;;;;;2.77;1.60;;;13.00;99.90;;;;;;5035917;28;20132;-76
2022/09/01 03:04:32;;;;;;;3.33;1.92;;;13.00;99.90;;;;;;5036000;28;20179;-76
2022/09/01 03:06:58;;;;;;;2.95;1.60;;;12.90;99.90;;;;;;5034680;28;20041;-76
2022/09/01 03:09:23;;;;;;;2.63;1.60;;;12.90;99.90;;;;;;5018798;28;20104;-76
2022/09/01 03:11:51;;;;;;;3.45;1.75;;;12.90;99.90;;;;;;5035807;28;20444;-76
2022/09/01 03:14:18;;;;;;;2.90;1.70;;;12.90;99.90;;;;;;5035569;28;20119;-77
2022/09/01 03:16:44;;;;;;;3.08;1.70;;;12.80;99.90;;;;;;5035662;28;20053;-76
2022/09/01 03:19:10;;;;;;;2.27;1.57;;;12.90;99.90;;;;;;5034926;28;20049;-76
2022/09/01 03:21:39;;;;;;;2.10;1.40;;;12.70;99.90;;;;;;5035652;28;20050;-76
2022/09/01 03:24:07;;;;;;;3.65;1.73;;;12.80;99.90;;;;;;5035513;28;20326;-78
2022/09/01 03:26:35;;;;;;;3.58;1.73;;;13.10;99.90;;;;;;5034570;28;20048;-77
2022/09/01 03:29:01;;;;;;;4.70;1.88;;;12.80;99.90;;;;;;5035383;28;20045;-78
2022/09/01 03:31:27;;;;;;;2.47;1.60;;;12.80;99.90;;;;;;5034178;28;20060;-77
2022/09/01 03:33:55;;;;;;;3.00;1.43;;;12.80;99.90;;;;;;5035034;28;20096;-77
2022/09/01 03:36:23;;;;;;;2.35;1.67;;;12.80;99.90;;;;;;5035326;28;20288;-77
2022/09/01 03:38:50;;;;;;;3.47;1.70;;;12.80;99.90;;;;;;5035285;28;20045;-77
2022/09/01 03:41:21;;;;;;;2.58;1.70;;;12.80;99.90;;;;;;5035179;28;20464;-78
2022/09/01 03:43:47;;;;;;;4.05;1.65;;;12.80;99.90;;;;;;5035160;28;20077;-79
2022/09/01 03:46:18;;;;;;;3.60;1.55;;;12.80;99.90;;;;;;5035195;28;20057;-77
2022/09/01 03:48:47;;;;;;;5.43;1.95;;;12.80;99.90;;;;;;5035172;28;20052;-77
2022/09/01 03:51:13;;;;;;;2.38;1.73;;;12.90;99.90;;;;;;5034408;28;20049;-77
2022/09/01 03:53:39;;;;;;;3.92;1.80;;;12.80;99.90;;;;;;5034927;28;20116;-78
2022/09/01 03:56:06;;;;;;;3.17;2.17;;;12.90;99.90;;;;;;5033817;28;20053;-78
2022/09/01 03:58:31;;;;;;;;;;;12.90;99.90;;;;;;5035833;28;20049;-77
2022/09/01 04:01:00;;;;;;;3.40;2.03;;;12.70;99.90;;;;;;5035272;28;19921;-78
2022/09/01 04:03:30;;;;;;;3.15;2.08;;;12.90;99.90;;;;;;5034869;28;20128;-77
2022/09/01 04:05:57;;;;;;;4.05;2.10;;;13.00;99.90;;;;;;5034681;28;20056;-78
2022/09/01 04:08:30;;;;;;;5.40;2.20;;;13.00;99.90;;;;;;5034866;28;20045;-78
2022/09/01 04:10:58;;;;;;;3.35;2.15;;;13.00;99.90;;;;;;5033556;28;20057;-77
2022/09/01 04:13:29;;;;;;;2.90;2.10;;;13.00;99.90;;;;;;5034540;28;20092;-77
2022/09/01 04:15:56;;;;;;;4.28;2.22;;;13.10;99.90;;;;;;5033344;28;20093;-78
2022/09/01 04:18:23;;;;;;;3.53;2.22;;;13.00;99.90;;;;;;5034639;28;20049;-77
2022/09/01 04:20:52;;;;;;;4.32;2.10;;;13.00;99.90;;;;;;5034565;28;20041;-77
2022/09/01 04:23:25;;;;;;;4.05;2.00;;;13.00;99.90;;;;;;5034447;28;20091;-77
2022/09/01 04:25:54;;;;;;;2.92;1.80;;;13.00;99.90;;;;;;5034905;28;20046;-77
2022/09/01 04:28:23;;;;;;;3.35;2.28;;;13.10;99.90;;;;;;5033229;28;20110;-77
2022/09/01 04:30:56;;;;;;;3.58;2.10;;;13.00;99.90;;;;;;5034321;28;20080;-77
2022/09/01 04:33:35;;;;;;;4.75;2.47;;;13.00;99.90;;;;;;5034318;28;20041;-77
2022/09/01 04:36:01;;;;;;;5.53;2.40;;;13.00;99.90;;;;;;5034177;28;20053;-77
2022/09/01 04:38:28;;;;;;;5.25;2.03;;;13.00;99.90;;;;;;5034815;28;20060;-77
2022/09/01 04:40:56;;;;;;;3.13;2.00;;;13.00;99.90;;;;;;5033988;28;20049;-77
2022/09/01 04:43:22;;;;;;;4.10;1.95;;;13.00;99.90;;;;;;5034292;28;20049;-77
2022/09/01 04:45:50;;;;;;;3.15;1.88;;;12.90;99.90;;;;;;5033991;28;20049;-77
2022/09/01 04:48:20;;;;;;;5.55;2.38;;;12.90;99.90;;;;;;5033980;28;20201;-77
2022/09/01 04:50:48;;;;;;;3.38;2.17;;;12.90;99.90;;;;;;5034039;28;20061;-77
2022/09/01 04:53:16;;;;;;;4.43;2.35;;;12.80;99.90;;;;;;5033862;28;20044;-77
2022/09/01 04:55:45;;;;;;;3.28;2.20;;;13.10;99.90;;;;;;5033999;28;20041;-77
2022/09/01 04:58:16;;;;;;;2.75;2.17;;;12.80;99.90;;;;;;5034137;28;20056;-77
2022/09/01 05:00:44;;;;;;;4.22;2.33;;;12.80;99.90;;;;;;5034146;28;20564;-77
2022/09/01 05:03:10;;;;;;;4.30;2.30;;;12.70;99.90;;;;;;5031991;28;20046;-77
2022/09/01 05:05:41;;;;;;;4.20;2.25;;;12.70;99.90;;;;;;5033984;28;20095;-77
2022/09/01 05:08:08;;;;;;;6.00;2.55;;;12.70;99.90;;;;;;5033202;28;20128;-77
2022/09/01 05:10:41;;;;;;;4.53;2.60;;;12.60;99.90;;;;;;5033884;28;20045;-77
2022/09/01 05:13:08;;;;;;;6.50;2.55;;;12.60;99.90;;;;;;5032844;28;20099;-77
2022/09/01 05:15:37;;;;;;;5.90;2.15;;;12.60;99.90;;;;;;5033957;28;20425;-77
2022/09/01 05:18:08;;;;;;;3.40;2.13;;;12.60;99.90;;;;;;5033678;28;20092;-77
2022/09/01 05:20:40;;;;;;;6.18;2.38;;;12.60;99.90;;;;;;5033659;28;20103;-77
2022/09/01 05:23:09;;;;;;;4.07;2.20;;;12.60;99.90;;;;;;5033700;28;20478;-77
2022/09/01 05:25:40;;;;;;;3.90;2.22;;;12.60;99.90;;;;;;5032265;28;20037;-77
2022/09/01 05:28:08;;;;;;;4.57;2.63;;;12.60;99.90;;;;;;5033507;28;20137;-77
2022/09/01 05:30:35;;;;;;;3.67;2.50;;;12.60;99.90;;;;;;5033531;28;20049;-77
2022/09/01 05:33:01;;;;;;;4.10;2.70;;;12.60;99.90;;;;;;5033796;28;20050;-77
2022/09/01 05:35:28;;;;;;;4.53;2.57;;;12.60;99.90;;;;;;5033382;28;20056;-77
2022/09/01 05:37:54;;;;;;;3.42;2.40;;;12.60;99.90;;;;;;5033462;28;20041;-77
2022/09/01 05:40:20;;;;;;;5.18;2.65;;;12.70;99.90;;;;;;5033713;28;20045;-77
2022/09/01 05:42:46;;;;;;;7.10;3.05;;;12.70;99.90;;;;;;5033337;28;20525;-77
2022/09/01 05:45:13;;;;;;;3.80;2.50;;;12.70;99.90;;;;;;5033419;28;20053;-77
2022/09/01 05:47:40;;;;;;;6.18;2.72;;;12.70;99.90;;;;;;5033197;28;20491;-77
2022/09/01 05:50:09;;;;;;;4.57;2.17;;;12.80;99.90;;;;;;5032434;28;20053;-77
2022/09/01 05:52:38;;;;;;;8.27;2.85;;;12.80;99.90;;;;;;5033329;28;20431;-77
2022/09/01 05:55:07;;;;;;;6.07;2.95;;;12.80;99.90;;;;;;5033159;28;20045;-77
2022/09/01 05:57:34;;;;;;;7.72;3.08;;;12.90;99.90;;;;;;5033217;28;20050;-77
2022/09/01 06:00:09;;;;;;;6.88;2.60;;;12.90;99.90;;;;;;5032515;28;20056;-77
2022/09/01 06:02:36;;;;;;;4.65;2.55;;;13.00;99.90;;;;;;5033254;28;20437;-77
2022/09/01 06:05:02;;;;;;;3.83;2.45;;;13.10;99.90;;;;;;5033204;28;20041;-77
2022/09/01 06:07:27;;;;;;;4.47;2.67;;;13.10;99.90;;;;;;5032050;28;20050;-77
2022/09/01 06:09:53;;;;;;;5.10;2.72;;;13.20;99.90;;;;;;5033207;28;20041;-78
2022/09/01 06:12:22;;;;;;;4.30;2.40;;;13.20;99.90;;;;;;5033171;28;20054;-77
2022/09/01 06:14:49;;;;;;;4.18;2.30;;;13.20;99.90;;;;;;5034941;28;20068;-77
2022/09/01 06:17:18;;;;;;;5.00;2.17;;;13.40;99.90;;;;;;5036755;28;20052;-77
2022/09/01 06:19:44;;;;;;;6.85;2.15;;;13.40;99.90;;;;;;5036742;28;20049;-77
2022/09/01 06:22:11;;;;;;;4.50;2.22;;;13.50;99.90;;;;;;5036803;28;20045;-77
2022/09/01 06:24:38;;;;;;;3.93;2.00;;;13.60;99.90;;;;;;5036585;28;20053;-77
2022/09/01 06:27:08;;;;;;;5.82;2.08;;;13.70;99.90;;;;;;5035437;28;20056;-77
2022/09/01 06:29:38;;;;;;;4.75;1.60;;;13.80;99.90;;;;;;5036942;28;20100;-77
2022/09/01 06:32:09;;;;;;;5.47;2.00;;;13.90;99.90;;;;;;5036643;28;20053;-77
2022/09/01 06:34:37;;;;;;;4.65;1.88;;;14.00;99.90;;;;;;5036474;28;20085;-77
2022/09/01 06:37:02;;;;;;;4.18;1.60;;;14.10;99.90;;;;;;5036495;28;20045;-77
2022/09/01 06:39:30;;;;;;;4.40;1.77;;;14.20;99.90;;;;;;5036067;28;20550;-77
2022/09/01 06:41:59;;;;;;;3.15;1.63;;;14.40;99.90;;;;;;5036341;28;20121;-77
2022/09/01 06:44:25;;;;;;;3.35;1.73;;;14.60;99.90;;;;;;5036323;28;20049;-77
2022/09/01 06:46:51;;;;;;;7.50;2.00;;;14.80;99.90;;;;;;5036210;28;20470;-77
2022/09/01 06:49:17;;;;;;;3.20;1.80;;;14.90;99.90;;;;;;5036240;28;20447;-77
2022/09/01 06:51:43;;;;;;;2.63;1.67;;;15.10;99.90;;;;;;5036140;28;20049;-77
2022/09/01 06:54:13;;;;;;;5.57;1.55;;;15.40;99.90;;;;;;5035766;28;20050;-77
2022/09/01 06:56:38;;;;;;;3.67;1.83;;;15.40;99.90;;;;;;5036077;28;20397;-77
2022/09/01 06:59:06;;;;;;;4.33;1.90;;;15.50;99.90;;;;;;5035147;28;20049;-77
2022/09/01 07:01:32;;;;;;;3.47;1.92;;;15.70;99.90;;;;;;5036008;28;20053;-77
2022/09/01 07:03:58;;;;;;;3.80;1.93;;;15.80;99.90;;;;;;5036087;28;20052;-78
2022/09/01 07:06:28;;;;;;;3.40;1.92;;;15.90;99.90;;;;;;5034394;28;20409;-78
2022/09/01 07:08:58;;;;;;;6.20;2.13;;;16.00;99.90;;;;;;5035499;28;20490;-78
2022/09/01 07:11:29;;;;;;;3.63;1.80;;;16.20;99.90;;;;;;5036090;28;20051;-77
2022/09/01 07:14:02;;;;;;;4.60;2.00;;;16.30;99.90;;;;;;5034131;28;20049;-77
2022/09/01 07:16:33;;;;;;;5.20;1.88;;;16.40;99.90;;;;;;5034762;28;20041;-78
2022/09/01 07:19:01;;;;;;;5.22;1.80;;;16.50;99.90;;;;;;5035717;28;20053;-78
2022/09/01 07:21:30;;;;;;;4.32;1.70;;;16.60;99.90;;;;;;5036109;28;20045;-78
2022/09/01 07:23:58;;;;;;;5.80;1.83;;;16.70;99.90;;;;;;5034606;28;20480;-78
2022/09/01 07:26:24;;;;;;;2.50;1.55;;;16.80;99.90;;;;;;5034534;28;20045;-78
2022/09/01 07:28:51;;;;;;;2.23;1.33;;;16.90;99.90;;;;;;5035544;28;20042;-78
2022/09/01 07:31:22;;;;;;;;;;;17.10;99.90;;;;;;5035821;28;20061;-78
2022/09/01 07:33:50;;;;;;;2.00;1.20;;;17.20;99.90;;;;;;5035324;28;20328;-78
2022/09/01 07:36:16;;;;;;;3.72;1.50;;;17.20;99.90;;;;;;5035369;28;20057;-78
2022/09/01 07:38:42;;;;;;;;;;;17.30;99.90;;;;;;5035749;28;20056;-78
2022/09/01 07:41:11;;;;;;;2.72;1.40;;;17.50;99.90;;;;;;5035270;28;20331;-78
2022/09/01 07:43:40;;;;;;;2.25;1.27;;;17.50;99.90;;;;;;5035159;28;20053;-78
2022/09/01 07:46:06;;;;;;;2.58;1.30;;;17.50;99.90;;;;;;5034957;28;20056;-78
2022/09/01 07:48:32;;;;;;;4.80;1.30;;;17.60;99.90;;;;;;5035110;28;20098;-78
2022/09/01 07:50:59;;;;;;;3.67;1.27;;;17.80;99.90;;;;;;5035042;28;20374;-78
2022/09/01 07:53:30;;;;;;;4.20;1.40;;;17.90;99.90;;;;;;5034796;28;20037;-78
2022/09/01 07:55:57;;;;;;;2.90;1.50;;;18.00;99.90;;;;;;5035011;28;20045;-79
2022/09/01 07:58:26;;;;;;;3.35;1.60;;;18.10;99.90;;;;;;5034914;28;20049;-79
2022/09/01 08:00:53;;;;;;;2.80;1.50;;;18.20;99.90;;;;;;5034810;28;20045;-78
2022/09/01 08:03:22;;;;;;;2.70;1.40;;;18.30;99.90;;;;;;5034817;28;20053;-78
2022/09/01 08:05:52;;;;;;;2.90;1.25;;;18.40;99.90;;;;;;5033590;28;20045;-79
2022/09/01 08:08:20;;;;;;;4.20;1.33;;;18.60;99.90;;;;;;5002447;28;20129;-79
2022/09/01 08:10:47;;;;;;;2.43;1.10;;;18.70;99.90;;;;;;5034728;28;20136;-79
2022/09/01 08:13:14;;;;;;;2.80;1.30;;;18.80;99.90;;;;;;5034556;28;20042;-79
2022/09/01 08:15:40;;;;;;;4.57;1.40;;;18.90;99.90;;;;;;5033297;28;20452;-78
2022/09/01 08:18:06;;;;;;;6.13;1.35;;;19.00;99.90;;;;;;5034564;28;20053;-79
2022/09/01 08:20:36;;;;;;;2.58;1.10;;;19.10;99.90;;;;;;5033292;28;20056;-79
2022/09/01 08:23:02;;;;;;;1.60;0.95;;;19.20;99.90;;;;;;5034476;28;20114;-79
2022/09/01 08:25:29;;;;;;;4.88;1.00;;;19.30;99.90;;;;;;5034314;28;20563;-79
2022/09/01 08:27:55;;;;;;;2.17;1.20;;;19.50;99.90;;;;;;5034139;28;20091;-78
2022/09/01 08:30:21;;;;;;;2.35;1.10;;;19.60;99.90;;;;;;5033418;28;20053;-79
2022/09/01 08:32:48;;;;;;;2.77;1.30;;;19.60;99.90;;;;;;5033185;28;20042;-79
2022/09/01 08:35:15;;;;;;;2.28;1.13;;;19.80;99.90;;;;;;5033025;28;20046;-78
2022/09/01 08:37:41;;;;;;;3.72;1.27;;;19.90;99.90;;;;;;5034369;28;20393;-78
2022/09/01 08:40:10;;;;;;;3.13;1.00;;;20.00;99.90;;;;;;5034161;28;20089;-78
2022/09/01 08:42:58;;;;;;;3.63;1.00;;;20.10;99.90;;;;;;5034055;28;20064;-78
2022/09/01 08:45:37;;;;;;;3.22;1.10;;;20.20;99.90;;;;;;5032884;28;20116;-78
2022/09/01 08:48:16;;;;;;;1.80;0.90;;;20.30;99.90;;;;;;5033217;28;20440;-78
2022/09/01 08:50:46;;;;;;;6.28;1.00;;;20.50;99.90;;;;;;5033166;28;20049;-78
2022/09/01 08:53:32;;;;;;;2.58;0.95;;;20.60;99.90;;;;;;5033735;28;20041;-78
2022/09/01 08:55:58;;;;;;;3.25;1.10;;;20.60;99.90;;;;;;5034046;28;20049;-78
2022/09/01 08:58:26;;;;;;;2.47;0.97;;;20.70;99.90;;;;;;5016453;28;20114;-78
2022/09/01 09:01:00;;;;;;;5.55;1.17;;;20.90;99.90;;;;;;5032942;28;20132;-78
2022/09/01 09:03:49;;;;;;;1.70;0.80;;;20.90;99.90;;;;;;5033778;28;20215;-77
2022/09/01 09:06:30;;;;;;;3.85;1.20;;;20.90;99.90;;;;;;5033766;28;20049;-79
2022/09/01 09:09:03;;;;;;;3.30;0.95;;;21.00;99.90;;;;;;5034002;28;20124;-78
2022/09/01 09:12:08;;;;;;;2.47;1.17;;;21.10;99.90;;;;;;5033645;28;20485;-78
2022/09/01 09:15:03;;;;;;;2.38;1.00;;;21.20;99.50;;;;;;5033848;28;20050;-78
2022/09/01 09:17:36;;;;;;;2.10;0.90;;;21.30;99.90;;;;;;5023058;28;20119;-79
2022/09/01 09:20:04;;;;;;;2.42;1.10;;;21.50;98.60;;;;;;5033490;28;20129;-78
2022/09/01 09:22:31;;;;;;;3.95;1.00;;;21.40;98.50;;;;;;5033560;28;20081;-78
2022/09/01 09:25:13;;;;;;;;;;;21.50;98.30;;;;;;5033938;28;20092;-78
2022/09/01 09:27:42;;;;;;;3.33;0.80;;;21.50;97.10;;;;;;5032647;28;19943;-78
2022/09/01 09:30:17;;;;;;;2.08;0.88;;;21.50;97.30;;;;;;5033520;28;20041;-78
2022/09/01 09:32:45;;;;;;;1.85;0.90;;;21.60;97.40;;;;;;5033563;28;20045;-78
2022/09/01 09:35:26;;;;;;;1.95;0.80;;;21.70;96.80;;;;;;5033483;28;20081;-79
2022/09/01 09:37:52;;;;;;;1.92;0.90;;;21.70;95.90;;;;;;5033607;28;20484;-79
2022/09/01 09:40:23;;;;;;;1.95;0.80;;;21.70;96.20;;;;;;5033856;28;20053;-78
2022/09/01 09:42:54;;;;;;;2.00;1.02;;;21.80;96.00;;;;;;5033613;28;20559;-79
2022/09/01 09:45:37;;;;;;;2.38;0.70;;;21.80;96.20;;;;;;5033384;28;20132;-79
2022/09/01 09:48:09;;;;;;;3.15;0.85;;;22.00;96.00;;;;;;5032423;28;20053;-79
2022/09/01 09:50:38;;;;;;;2.92;0.63;;;22.10;95.30;;;;;;5036993;28;20045;-78
2022/09/01 09:53:26;;;;;;;6.90;0.80;;;22.20;95.20;;;;;;5037263;28;20045;-79
2022/09/01 09:55:54;;;;;;;1.90;0.80;;;22.30;94.50;;;;;;5037235;28;20077;-79
2022/09/01 09:58:25;;;;;;;4.63;0.90;;;22.20;94.60;;;;;;5037154;28;20049;-78
2022/09/01 10:01:25;;;;;;;2.67;0.80;;;22.30;94.60;;;;;;5037199;28;20056;-79
2022/09/01 10:03:58;;;;;;;2.60;0.70;;;22.50;94.20;;;;;;5036843;28;20103;-79
2022/09/01 10:06:32;;;;;;;1.50;0.70;;;22.60;93.50;;;;;;5036972;28;20499;-76
2022/09/01 10:09:01;;;;;;;3.63;0.98;;;22.50;93.80;;;;;;5037095;28;20148;-79
2022/09/01 10:11:28;;;;;;;1.77;0.68;;;22.40;93.30;;;;;;5036952;28;20041;-79
2022/09/01 10:13:54;;;;;;;1.50;0.70;;;22.40;93.40;;;;;;5036393;28;20117;-78
2022/09/01 10:16:29;;;;;;;1.73;0.90;;;22.50;93.80;;;;;;5036918;28;20053;-79
2022/09/01 10:18:59;;;;;;;3.72;0.90;;;22.70;94.00;;;;;;5035755;28;20124;-78
2022/09/01 10:21:33;;;;;;;1.38;0.85;;;22.90;93.10;;;;;;5036856;28;20042;-79
2022/09/01 10:24:01;;;;;;;4.60;1.13;;;22.90;92.40;;;;;;5036609;28;20034;-78
2022/09/01 10:26:34;;;;;;;2.95;0.80;;;22.90;92.50;;;;;;5036520;28;20057;-79
2022/09/01 10:29:28;;;;;;;2.05;0.80;;;23.10;92.50;;;;;;5036668;28;20052;-78
2022/09/01 10:31:54;;;;;;;5.88;0.73;;;23.20;92.40;;;;;;5037006;28;20505;-79
2022/09/01 10:34:22;;;;;;;5.03;0.85;;;23.30;92.50;;;;;;5036480;28;20083;-78
2022/09/01 10:36:49;;;;;;;4.10;0.90;;;23.40;91.40;;;;;;5036459;28;20042;-78
2022/09/01 10:39:18;;;;;;;3.28;0.70;;;23.60;91.80;;;;;;5036424;28;20056;-79
2022/09/01 10:42:03;;;;;;;0.95;0.50;;;23.50;91.70;;;;;;5035126;28;20489;-79
2022/09/01 10:44:34;;;;;;;3.40;0.60;;;23.50;90.90;;;;;;5036344;28;20041;-79
2022/09/01 10:47:29;;;;;;;5.40;0.60;;;23.60;91.10;;;;;;5036617;28;20053;-79
2022/09/01 10:49:57;;;;;;;5.25;0.80;;;23.90;91.00;;;;;;5036274;28;20087;-79
2022/09/01 10:52:53;;;;;;;2.60;0.80;;;24.10;91.50;;;;;;5036090;28;20128;-79
2022/09/01 10:55:35;;;;;;;2.97;0.75;;;24.10;90.10;;;;;;5034545;28;20107;-78
2022/09/01 10:58:23;;;;;;;1.58;0.70;;;24.00;89.40;;;;;;5034857;28;20504;-79
2022/09/01 11:00:51;;;;;;;1.10;0.60;;;23.90;90.20;;;;;;5036038;28;20370;-79
2022/09/01 11:03:17;;;;;;;2.17;0.60;;;24.10;90.40;;;;;;5036224;28;20092;-78
2022/09/01 11:06:04;;;;;;;2.10;0.77;;;24.20;90.60;;;;;;5035979;28;20061;-79
2022/09/01 11:08:30;;;;;;;2.43;0.87;;;24.40;89.60;;;;;;5035851;28;20088;-79
2022/09/01 11:11:25;;;;;;;2.27;0.70;;;24.30;89.60;;;;;;5035922;28;20054;-79
2022/09/01 11:13:53;;;;;;;2.35;0.70;;;24.20;88.10;;;;;;5035924;28;20516;-78
2022/09/01 11:16:26;;;;;;;1.63;0.80;;;24.30;89.50;;;;;;5035728;28;20053;-79
2022/09/01 11:18:52;;;;;;;1.42;0.70;;;24.40;88.40;;;;;;5036270;28;20432;-79
2022/09/01 11:21:27;;;;;;;2.17;0.70;;;24.40;89.00;;;;;;5035506;28;20615;-79
2022/09/01 11:24:31;;;;;;;2.22;0.60;;;24.60;88.50;;;;;;5034675;28;20057;-79
2022/09/01 11:26:56;;;;;;;1.50;0.70;;;24.50;88.10;;;;;;5035609;28;20053;-79
2022/09/01 11:29:51;;;;;;;3.60;0.80;;;24.20;89.40;;;;;;5035510;28;20547;-79
2022/09/01 11:32:19;;;;;;;11.23;0.77;;;24.20;87.80;;;;;;5036150;28;20153;-79
2022/09/01 11:34:48;;;;;;;2.65;0.63;;;24.00;88.60;;;;;;5034690;28;20397;-78
2022/09/01 11:37:16;;;;;;;4.07;0.60;;;24.20;89.10;;;;;;5035596;28;20471;-79
2022/09/01 11:39:51;;;;;;;1.00;0.65;;;24.30;88.80;;;;;;5035308;28;20049;-79
2022/09/01 11:42:22;;;;;;;2.08;0.60;;;24.60;85.00;;;;;;5035427;28;20175;-79
2022/09/01 11:44:57;;;;;;;3.63;1.13;;;24.70;85.10;;;;;;5018839;28;20495;-78
2022/09/01 11:47:49;;;;;;;1.40;0.70;;;24.70;85.40;;;;;;5035242;28;20045;-78
2022/09/01 11:50:19;;;;;;;3.30;0.60;;;24.80;84.60;;;;;;5035174;28;20389;-79
2022/09/01 11:53:08;;;;;;;2.10;0.70;;;25.00;85.30;;;;;;5035021;28;20049;-78
2022/09/01 11:55:39;;;;;;;2.05;0.60;;;25.20;83.50;;;;;;5035024;28;20052;-76
2022/09/01 11:58:10;;;;;;;2.15;0.70;;;25.20;83.90;;;;;;5035076;28;20073;-79
2022/09/01 12:00:38;;;;;;;4.10;0.80;;;25.30;83.00;;;;;;5035066;28;20045;-79
2022/09/01 12:03:23;;;;;;;1.10;0.60;;;25.40;84.30;;;;;;5034872;28;20409;-79
2022/09/01 12:06:01;;;;;;;1.90;0.73;;;25.50;83.10;;;;;;5035317;28;20053;-79
2022/09/01 12:08:30;;;;;;;4.32;0.70;;;25.70;81.30;;;;;;5034655;28;20057;-78
2022/09/01 12:11:11;;;;;;;3.10;0.70;;;25.80;82.00;;;;;;5034719;28;20087;-80
2022/09/01 12:13:38;;;;;;;3.00;0.65;;;25.70;81.30;;;;;;5034197;28;20052;-79
2022/09/01 12:16:07;;;;;;;1.90;0.70;;;25.70;81.70;;;;;;5034629;28;20049;-79
2022/09/01 12:18:38;;;;;;;2.80;0.70;;;25.50;81.50;;;;;;5034571;28;20136;-78
2022/09/01 12:21:07;;;;;;;1.45;0.77;;;25.50;82.60;;;;;;5034762;28;20041;-79
2022/09/01 12:23:42;;;;;;;2.97;0.60;;;25.60;82.10;;;;;;5034573;28;20045;-79
2022/09/01 12:26:10;;;;;;;1.52;0.70;;;25.50;79.70;;;;;;5033523;28;20049;-79
2022/09/01 12:28:40;;;;;;;2.85;0.70;;;25.10;81.10;;;;;;5034382;28;20448;-79
2022/09/01 12:31:12;;;;;;;4.18;0.60;;;24.80;82.20;;;;;;5034759;28;20083;-79
2022/09/01 12:33:38;;;;;;;3.42;0.60;;;24.60;82.50;;;;;;5034305;28;20045;-79
2022/09/01 12:36:23;;;;;;;1.65;0.70;;;24.50;83.00;;;;;;5033036;28;20053;-79
2022/09/01 12:38:49;;;;;;;3.50;0.70;;;24.40;82.20;;;;;;5034141;28;20493;-79
2022/09/01 12:41:25;;;;;;;;;;;24.60;83.10;;;;;;5035355;28;20042;-79
2022/09/01 12:43:51;;;;;;;1.92;0.60;;;24.80;82.60;;;;;;5034465;28;20300;-79
2022/09/01 12:46:41;;;;;;;1.53;0.60;;;25.00;81.90;;;;;;5033305;28;20049;-79
2022/09/01 12:49:23;;;;;;;2.40;0.88;;;25.20;82.50;;;;;;5033039;28;20096;-80
2022/09/01 12:52:04;;;;;;;1.67;0.77;;;25.10;81.40;;;;;;5033992;28;20504;-79
2022/09/01 12:54:29;;;;;;;1.48;0.70;;;25.00;82.60;;;;;;5033956;28;20334;-79
2022/09/01 12:56:56;;;;;;;1.77;0.70;;;24.90;82.60;;;;;;5034110;28;20048;-78
2022/09/01 12:59:25;;;;;;;1.98;0.77;;;25.00;82.30;;;;;;5032797;28;20520;-79
2022/09/01 13:01:51;;;;;;;3.08;1.20;;;25.00;80.90;;;;;;5033859;28;20041;-78
2022/09/01 13:04:25;;;;;;;5.20;0.90;;;25.10;81.80;;;;;;5033813;28;20482;-78
2022/09/01 13:06:52;;;;;;;3.13;0.90;;;25.30;81.10;;;;;;5033806;28;20037;-79
2022/09/01 13:09:18;;;;;;;1.50;0.80;;;25.40;81.20;;;;;;5033790;28;20091;-79
2022/09/01 13:11:48;;;;;;;1.17;0.75;;;25.60;81.40;;;;;;5033737;28;20111;-80